Maningrida, Australia
Current Conditions -  °F | °C
As of 3:30 PM on Monday 24 Nov 2014 (Local Time) from YPGV Reporting Station
Scattered Clouds Scattered Clouds  
Wind Chill: 86°   Ceiling: Unl
Heat Index: 92°   Visibility: 6mi
Dew Point: 72°   Wind: 15mph
Humidity: 62%   Direction: 60°ENE
Pressure: 29.74"   Gusts: NA
Location:  12.21°S, 134.3°E
Report Text: YPGV 240630Z AUTO 06013KT 9999 // SCT023 30/22 Q1007
Loading
Personal Weather Stations






























Interactive Weather Map New forecast layout! Learn more

10-Day Weather Forecast

Advertisements
Track Severe Weather on mobile